createdAt,value
2023-04-17T00:00:11.263Z,13.68
2023-04-17T00:02:40.758Z,17.50
2023-04-17T00:05:10.385Z,9.98
2023-04-17T00:07:39.714Z,10.27
2023-04-17T00:10:11.743Z,11.98
2023-04-17T00:12:40.145Z,12.65
2023-04-17T00:15:09.655Z,12.00
2023-04-17T00:17:38.304Z,11.73
2023-04-17T00:20:10.732Z,11.75
2023-04-17T00:22:39.526Z,14.43
2023-04-17T00:25:13.094Z,10.45
2023-04-17T00:27:42.148Z,12.35
2023-04-17T00:30:11.246Z,13.38
2023-04-17T00:32:39.728Z,11.40
2023-04-17T00:35:08.989Z,11.32
2023-04-17T00:37:37.573Z,12.55
2023-04-17T00:40:06.977Z,13.27
2023-04-17T00:42:37.089Z,12.48
2023-04-17T00:45:06.386Z,12.20
2023-04-17T00:47:34.944Z,12.68
2023-04-17T00:50:04.821Z,12.63
2023-04-17T00:52:33.478Z,14.48
2023-04-17T00:55:03.365Z,14.82
2023-04-17T00:57:31.747Z,12.60
2023-04-17T01:00:01.873Z,11.98
2023-04-17T01:02:31.547Z,12.43
2023-04-17T01:05:00.219Z,11.88
2023-04-17T01:07:29.204Z,10.85
2023-04-17T01:09:57.709Z,11.25
2023-04-17T01:12:27.048Z,15.05
2023-04-17T01:14:56.964Z,10.70
2023-04-17T01:17:28.518Z,15.95
2023-04-17T01:19:57.900Z,12.18
2023-04-17T01:22:26.482Z,12.13
2023-04-17T01:25:00.946Z,11.55
2023-04-17T01:27:36.519Z,10.80
2023-04-17T01:30:05.666Z,11.30
2023-04-17T01:32:40.529Z,12.48
2023-04-17T01:35:09.731Z,11.30
2023-04-17T01:37:38.263Z,14.77
2023-04-17T01:40:10.267Z,11.95
2023-04-17T01:42:39.054Z,14.13
2023-04-17T01:45:08.838Z,10.95
2023-04-17T01:47:37.715Z,11.23
2023-04-17T01:50:09.285Z,10.95
2023-04-17T01:52:39.979Z,13.85
2023-04-17T01:55:11.076Z,10.23
2023-04-17T01:57:39.388Z,13.80
2023-04-17T02:00:09.489Z,13.38
2023-04-17T02:02:44.816Z,13.30
2023-04-17T02:05:13.456Z,11.63
2023-04-17T02:07:41.902Z,16.35
2023-04-17T02:10:12.068Z,14.52
2023-04-17T02:12:41.201Z,12.57
2023-04-17T02:15:11.109Z,12.05
2023-04-17T02:17:39.884Z,14.02
2023-04-17T02:20:09.476Z,11.63
2023-04-17T02:22:37.862Z,11.18
2023-04-17T02:25:07.147Z,9.40
2023-04-17T02:27:37.024Z,9.00
2023-04-17T02:30:07.921Z,10.10
2023-04-17T02:32:36.185Z,8.75
2023-04-17T02:35:06.686Z,10.02
2023-04-17T02:37:36.392Z,9.95
2023-04-17T02:40:06.972Z,8.55
2023-04-17T02:42:37.572Z,8.77
2023-04-17T02:45:06.737Z,11.02
2023-04-17T02:47:35.258Z,7.95
2023-04-17T02:50:04.927Z,9.38
2023-04-17T02:52:40.986Z,8.15
2023-04-17T02:55:10.056Z,6.15
2023-04-17T02:57:41.581Z,9.18
2023-04-17T03:00:13.654Z,7.70
2023-04-17T03:02:43.022Z,8.75
2023-04-17T03:05:15.109Z,7.45
2023-04-17T03:07:44.547Z,7.28
2023-04-17T03:10:13.644Z,6.45
2023-04-17T03:12:43.457Z,9.60
2023-04-17T03:15:14.220Z,9.25
2023-04-17T03:17:42.786Z,9.45
2023-04-17T03:20:13.618Z,7.18
2023-04-17T03:22:42.076Z,7.60
2023-04-17T03:25:11.252Z,9.27
2023-04-17T03:27:47.795Z,8.32
2023-04-17T03:30:17.909Z,11.15
2023-04-17T03:35:18.247Z,10.82
2023-04-17T03:37:46.891Z,10.95
2023-04-17T03:40:15.796Z,9.20
2023-04-17T03:42:48.062Z,9.93
2023-04-17T03:45:17.220Z,12.77
2023-04-17T03:47:48.445Z,11.15
2023-04-17T03:50:17.530Z,11.87
2023-04-17T03:52:53.090Z,10.23
2023-04-17T03:55:22.086Z,11.43
2023-04-17T03:57:52.845Z,10.93
2023-04-17T04:00:22.576Z,8.93
2023-04-17T04:02:57.253Z,9.98
2023-04-17T04:05:35.281Z,11.25
2023-04-17T04:08:04.872Z,11.00
2023-04-17T04:10:45.653Z,9.93
2023-04-17T04:13:21.036Z,9.95
2023-04-17T04:16:01.363Z,9.93
2023-04-17T04:18:31.808Z,9.02
2023-04-17T04:21:00.849Z,11.13
2023-04-17T04:23:34.749Z,9.88
2023-04-17T04:26:03.522Z,11.23
2023-04-17T04:28:43.972Z,10.68
2023-04-17T04:31:33.901Z,12.07
2023-04-17T04:34:06.258Z,13.18
2023-04-17T04:36:36.441Z,12.23
2023-04-17T04:39:21.920Z,10.25
2023-04-17T04:41:52.212Z,10.90
2023-04-17T04:44:25.651Z,9.90
2023-04-17T04:46:58.201Z,9.73
2023-04-17T04:49:27.637Z,9.60
2023-04-17T04:51:57.183Z,12.40
2023-04-17T04:54:33.626Z,10.35
2023-04-17T04:57:03.850Z,10.88
2023-04-17T04:59:36.757Z,11.73
2023-04-17T05:02:26.326Z,11.57
2023-04-17T05:04:55.729Z,11.45
2023-04-17T05:07:25.073Z,11.60
2023-04-17T05:09:55.004Z,11.50
2023-04-17T05:12:23.947Z,12.32
2023-04-17T05:14:54.154Z,11.85
2023-04-17T05:17:22.921Z,11.45
2023-04-17T05:19:51.862Z,10.65
2023-04-17T05:22:22.224Z,12.32
2023-04-17T05:25:03.991Z,11.65
2023-04-17T05:27:32.671Z,16.85
2023-04-17T05:30:05.374Z,10.27
2023-04-17T05:32:35.242Z,11.45
2023-04-17T05:35:39.041Z,13.32
2023-04-17T05:38:09.902Z,10.05
2023-04-17T05:40:38.681Z,13.68
2023-04-17T05:43:09.472Z,11.40
2023-04-17T05:45:41.658Z,13.32
2023-04-17T05:48:11.381Z,15.02
2023-04-17T05:50:40.492Z,14.15
2023-04-17T05:53:10.406Z,13.68
2023-04-17T05:55:50.852Z,15.75
2023-04-17T05:58:24.088Z,14.68
2023-04-17T06:00:59.208Z,15.55
2023-04-17T06:03:30.182Z,16.10
2023-04-17T06:06:19.533Z,16.40
2023-04-17T06:08:48.503Z,17.48
2023-04-17T06:11:17.416Z,16.90
2023-04-17T06:13:47.710Z,17.58
2023-04-17T06:16:20.048Z,16.73
2023-04-17T06:18:50.861Z,15.95
2023-04-17T06:21:19.833Z,16.63
2023-04-17T06:23:48.811Z,18.38
2023-04-17T06:26:19.018Z,17.98
2023-04-17T06:28:49.174Z,17.13
2023-04-17T06:31:20.246Z,22.02
2023-04-17T06:33:50.365Z,21.73
2023-04-17T06:36:22.324Z,23.58
2023-04-17T06:38:54.916Z,22.95
2023-04-17T06:41:24.674Z,25.70
2023-04-17T06:43:55.707Z,21.58
2023-04-17T06:46:26.377Z,19.13
2023-04-17T06:48:58.231Z,19.57
2023-04-17T06:51:28.307Z,18.65
2023-04-17T06:53:59.013Z,17.48
2023-04-17T06:56:28.203Z,17.97
2023-04-17T06:58:58.135Z,21.02
2023-04-17T07:01:29.647Z,18.92
2023-04-17T07:03:58.930Z,14.15
2023-04-17T07:06:27.893Z,16.42
2023-04-17T07:08:56.749Z,13.90
2023-04-17T07:11:26.335Z,13.68
2023-04-17T07:13:55.382Z,13.60
2023-04-17T07:16:24.446Z,14.00
2023-04-17T07:18:54.848Z,14.65
2023-04-17T07:21:23.747Z,14.57
2023-04-17T07:23:54.038Z,12.50
2023-04-17T07:26:23.274Z,13.95
2023-04-17T07:28:52.258Z,12.05
2023-04-17T07:31:22.404Z,12.70
2023-04-17T07:33:51.608Z,13.93
2023-04-17T07:36:21.688Z,13.05
2023-04-17T07:38:50.794Z,12.73
2023-04-17T07:41:20.041Z,14.10
2023-04-17T07:43:48.823Z,12.50
2023-04-17T07:46:17.832Z,12.82
2023-04-17T07:48:46.502Z,10.95
2023-04-17T07:51:14.993Z,12.50
2023-04-17T07:53:45.661Z,12.07
2023-04-17T07:56:14.582Z,11.40
2023-04-17T07:58:45.151Z,12.50
2023-04-17T08:01:14.278Z,12.88
2023-04-17T08:03:45.532Z,12.85
2023-04-17T08:06:14.192Z,13.13
2023-04-17T08:08:47.617Z,12.27
2023-04-17T08:11:17.973Z,12.70
2023-04-17T08:13:46.951Z,11.60
2023-04-17T08:16:16.025Z,12.43
2023-04-17T08:18:44.767Z,9.73
2023-04-17T08:21:13.247Z,10.95
2023-04-17T08:23:43.274Z,9.30
2023-04-17T08:26:12.987Z,11.95
2023-04-17T08:28:43.018Z,9.27
2023-04-17T08:31:11.955Z,8.20
2023-04-17T08:33:40.600Z,9.70
2023-04-17T08:36:10.695Z,9.55
2023-04-17T08:39:25.142Z,10.75
2023-04-17T08:42:01.201Z,10.40
2023-04-17T08:44:33.009Z,11.38
2023-04-17T08:49:32.006Z,11.70
2023-04-17T08:52:04.247Z,12.57
2023-04-17T08:54:35.710Z,13.20
2023-04-17T08:57:05.283Z,12.90
2023-04-17T08:59:35.625Z,17.23
2023-04-17T09:02:06.894Z,15.23
2023-04-17T09:04:40.731Z,14.80
2023-04-17T09:07:10.864Z,12.38
2023-04-17T09:09:50.109Z,14.55
2023-04-17T09:12:19.112Z,12.52
2023-04-17T09:14:49.386Z,13.60
2023-04-17T09:17:19.610Z,15.70
2023-04-17T09:20:07.780Z,14.35
2023-04-17T09:22:37.759Z,14.07
2023-04-17T09:25:16.510Z,13.05
2023-04-17T09:27:45.218Z,16.45
2023-04-17T09:30:16.356Z,14.23
2023-04-17T09:32:45.292Z,13.38
2023-04-17T09:35:26.316Z,12.68
2023-04-17T09:37:56.853Z,13.07
2023-04-17T09:40:26.838Z,15.02
2023-04-17T09:43:02.303Z,16.92
2023-04-17T09:45:36.341Z,15.25
2023-04-17T09:48:08.468Z,12.98
2023-04-17T09:53:09.286Z,11.65
2023-04-17T09:55:39.698Z,9.88
2023-04-17T09:58:12.075Z,9.98
2023-04-17T10:00:43.256Z,8.27
2023-04-17T10:03:17.439Z,7.68
2023-04-17T10:05:47.163Z,10.00
2023-04-17T10:08:16.842Z,7.93
2023-04-17T10:10:47.153Z,7.45
2023-04-17T10:13:16.989Z,7.75
2023-04-17T10:15:48.142Z,8.70
2023-04-17T10:18:23.565Z,10.10
2023-04-17T10:20:55.708Z,8.68
2023-04-17T10:23:35.496Z,8.77
2023-04-17T10:26:41.024Z,9.68
2023-04-17T10:29:10.423Z,9.00
2023-04-17T10:32:26.209Z,6.97
2023-04-17T10:34:58.406Z,7.32
2023-04-17T10:38:00.124Z,5.18
2023-04-17T10:40:32.175Z,8.55
2023-04-17T10:43:12.528Z,9.02
2023-04-17T10:45:56.818Z,7.07
2023-04-17T10:48:30.143Z,8.32
2023-04-17T10:51:01.271Z,9.07
2023-04-17T10:53:44.453Z,9.00
2023-04-17T10:56:19.172Z,7.75
2023-04-17T10:58:59.650Z,8.57
2023-04-17T11:01:31.038Z,7.25
2023-04-17T11:04:00.924Z,7.78
2023-04-17T11:06:33.396Z,5.72
2023-04-17T11:09:02.434Z,6.68
2023-04-17T11:11:43.651Z,6.28
2023-04-17T11:14:15.917Z,6.45
2023-04-17T11:16:46.523Z,8.27
2023-04-17T11:19:21.857Z,6.70
2023-04-17T11:21:54.222Z,5.00
2023-04-17T11:24:26.932Z,5.22
2023-04-17T11:26:56.696Z,6.68
2023-04-17T11:29:26.392Z,5.20
2023-04-17T11:31:57.290Z,7.40
2023-04-17T11:34:27.503Z,6.93
2023-04-17T11:36:59.519Z,5.47
2023-04-17T11:39:31.047Z,5.65
2023-04-17T11:42:00.706Z,5.22
2023-04-17T11:44:33.091Z,6.78
2023-04-17T11:47:04.155Z,8.52
2023-04-17T11:49:33.962Z,5.63
2023-04-17T11:52:05.922Z,5.72
2023-04-17T11:54:38.010Z,7.10
2023-04-17T11:57:08.491Z,8.35
2023-04-17T11:59:39.209Z,6.03
2023-04-17T12:02:09.370Z,5.75
2023-04-17T12:04:40.261Z,7.25
2023-04-17T12:07:24.227Z,6.65
2023-04-17T12:09:58.406Z,8.57
2023-04-17T12:12:27.669Z,5.55
2023-04-17T12:14:56.344Z,6.40
2023-04-17T12:17:25.866Z,6.70
2023-04-17T12:19:54.610Z,7.68
2023-04-17T12:22:24.664Z,7.20
2023-04-17T12:24:53.803Z,4.63
2023-04-17T12:27:22.637Z,8.77
2023-04-17T12:29:51.538Z,8.30
2023-04-17T12:32:20.999Z,5.25
2023-04-17T12:34:50.437Z,6.20
2023-04-17T12:37:20.181Z,8.73
2023-04-17T12:39:50.696Z,8.20
2023-04-17T12:42:19.252Z,7.00
2023-04-17T12:44:48.506Z,8.65
2023-04-17T12:47:17.319Z,9.48
2023-04-17T12:49:46.304Z,9.45
2023-04-17T12:52:15.172Z,7.72
2023-04-17T12:54:44.475Z,7.75
2023-04-17T12:57:15.527Z,6.88
2023-04-17T12:59:44.620Z,8.85
2023-04-17T13:02:13.292Z,7.88
2023-04-17T13:04:42.375Z,7.88
2023-04-17T13:07:12.072Z,9.35
2023-04-17T13:09:40.967Z,7.65
2023-04-17T13:12:09.868Z,9.23
2023-04-17T13:14:41.202Z,6.97
2023-04-17T13:17:10.576Z,7.95
2023-04-17T13:19:40.323Z,8.25
2023-04-17T13:22:09.576Z,8.05
2023-04-17T13:24:38.237Z,9.23
2023-04-17T13:27:06.971Z,10.98
2023-04-17T13:29:36.008Z,14.82
2023-04-17T13:32:07.673Z,12.20
2023-04-17T13:34:36.748Z,11.68
2023-04-17T13:37:05.760Z,8.43
2023-04-17T13:39:34.583Z,7.25
2023-04-17T13:42:04.392Z,8.52
2023-04-17T13:44:33.647Z,8.25
2023-04-17T13:47:03.963Z,8.27
2023-04-17T13:49:34.586Z,6.72
2023-04-17T13:52:03.499Z,6.32
2023-04-17T13:54:34.131Z,7.55
2023-04-17T13:57:02.956Z,7.32
2023-04-17T13:59:32.870Z,7.90
2023-04-17T14:02:04.232Z,7.65
2023-04-17T14:04:35.040Z,7.47
2023-04-17T14:07:04.552Z,7.70
2023-04-17T14:09:34.197Z,7.55
2023-04-17T14:12:03.171Z,6.90
2023-04-17T14:14:32.046Z,7.68
2023-04-17T14:17:00.991Z,8.82
2023-04-17T14:19:29.910Z,6.30
2023-04-17T14:21:59.963Z,8.15
2023-04-17T14:24:29.168Z,8.10
2023-04-17T14:26:58.620Z,13.00
2023-04-17T14:29:28.062Z,10.25
2023-04-17T14:31:57.141Z,10.15
2023-04-17T14:34:26.876Z,8.82
2023-04-17T14:36:58.049Z,9.45
2023-04-17T14:39:31.520Z,9.65
2023-04-17T14:42:02.372Z,10.18
2023-04-17T14:44:35.864Z,9.45
2023-04-17T14:47:06.902Z,11.80
2023-04-17T14:49:39.292Z,10.55
2023-04-17T14:52:08.196Z,10.05
2023-04-17T14:54:38.750Z,10.32
2023-04-17T14:57:07.690Z,11.02
2023-04-17T14:59:37.317Z,9.30
2023-04-17T15:02:07.370Z,10.75
2023-04-17T15:04:36.816Z,8.55
2023-04-17T15:07:05.572Z,9.48
2023-04-17T15:09:34.776Z,12.70
2023-04-17T15:12:05.823Z,12.90
2023-04-17T15:14:34.396Z,9.98
2023-04-17T15:17:07.066Z,9.80
2023-04-17T15:19:36.131Z,11.38
2023-04-17T15:22:04.909Z,10.80
2023-04-17T15:24:34.224Z,10.55
2023-04-17T15:27:05.359Z,7.85
2023-04-17T15:29:37.089Z,8.57
2023-04-17T15:32:06.300Z,9.80
2023-04-17T15:34:35.917Z,10.07
2023-04-17T15:37:07.585Z,10.00
2023-04-17T15:39:37.966Z,11.32
2023-04-17T15:42:10.058Z,10.25
2023-04-17T15:44:39.352Z,8.20
2023-04-17T15:47:10.023Z,9.32
2023-04-17T15:49:38.980Z,9.57
2023-04-17T15:52:10.679Z,10.32
2023-04-17T15:54:39.774Z,8.80
2023-04-17T15:57:10.559Z,9.18
2023-04-17T15:59:39.554Z,9.07
2023-04-17T16:02:08.268Z,10.15
2023-04-17T16:04:39.338Z,9.48
2023-04-17T16:07:08.222Z,10.15
2023-04-17T16:09:37.955Z,9.20
2023-04-17T16:12:08.919Z,9.57
2023-04-17T16:14:39.936Z,10.07
2023-04-17T16:17:08.624Z,9.20
2023-04-17T16:19:37.659Z,8.77
2023-04-17T16:22:06.546Z,10.90
2023-04-17T16:24:35.287Z,11.02
2023-04-17T16:27:04.428Z,11.30
2023-04-17T16:29:33.195Z,9.95
2023-04-17T16:32:03.493Z,8.63
2023-04-17T16:34:32.257Z,12.13
2023-04-17T16:37:01.084Z,14.73
2023-04-17T16:39:30.703Z,8.80
2023-04-17T16:41:59.451Z,10.77
2023-04-17T16:44:29.633Z,9.63
2023-04-17T16:47:12.637Z,10.48
2023-04-17T16:49:44.656Z,10.40
2023-04-17T16:52:13.384Z,12.93
2023-04-17T16:54:42.304Z,12.15
2023-04-17T16:57:11.405Z,10.38
2023-04-17T16:59:40.105Z,11.18
2023-04-17T17:02:09.229Z,10.10
2023-04-17T17:04:38.051Z,9.57
2023-04-17T17:07:08.354Z,12.52
2023-04-17T17:09:37.056Z,10.70
2023-04-17T17:12:06.737Z,10.10
2023-04-17T17:14:36.367Z,11.95
2023-04-17T17:17:05.197Z,10.60
2023-04-17T17:19:34.105Z,9.05
2023-04-17T17:22:04.766Z,11.35
2023-04-17T17:24:36.314Z,10.05
2023-04-17T17:27:06.754Z,10.50
2023-04-17T17:29:35.488Z,10.15
2023-04-17T17:32:04.664Z,10.32
2023-04-17T17:34:35.683Z,12.05
2023-04-17T17:37:05.268Z,11.68
2023-04-17T17:39:35.505Z,11.70
2023-04-17T17:42:08.916Z,13.70
2023-04-17T17:44:38.758Z,10.80
2023-04-17T17:47:08.281Z,13.82
2023-04-17T17:49:36.959Z,10.65
2023-04-17T17:52:06.090Z,11.70
2023-04-17T17:54:38.514Z,10.27
2023-04-17T17:59:36.637Z,9.90
2023-04-17T18:02:05.617Z,9.68
2023-04-17T18:04:36.330Z,9.07
2023-04-17T18:07:05.495Z,12.77
2023-04-17T18:09:34.262Z,9.95
2023-04-17T18:12:04.667Z,11.18
2023-04-17T18:14:34.304Z,11.63
2023-04-17T18:17:04.013Z,10.52
2023-04-17T18:19:33.156Z,12.63
2023-04-17T18:22:02.180Z,14.90
2023-04-17T18:24:32.091Z,10.70
2023-04-17T18:27:04.343Z,11.23
2023-04-17T18:29:34.200Z,11.60
2023-04-17T18:32:03.637Z,12.68
2023-04-17T18:34:34.173Z,15.93
2023-04-17T18:37:04.089Z,14.13
2023-04-17T18:39:35.750Z,12.70
2023-04-17T18:42:06.470Z,11.77
2023-04-17T18:44:35.897Z,14.30
2023-04-17T18:47:04.936Z,11.30
2023-04-17T18:49:34.046Z,10.63
2023-04-17T18:52:03.488Z,13.32
2023-04-17T18:54:33.132Z,13.77
2023-04-17T18:57:02.136Z,12.48
2023-04-17T18:59:32.627Z,11.57
2023-04-17T19:02:01.477Z,9.10
2023-04-17T19:04:31.019Z,11.27
2023-04-17T19:07:00.175Z,12.85
2023-04-17T19:09:29.278Z,11.57
2023-04-17T19:11:58.750Z,13.55
2023-04-17T19:14:28.700Z,11.57
2023-04-17T19:16:58.882Z,11.50
2023-04-17T19:19:28.064Z,12.35
2023-04-17T19:21:56.621Z,10.93
2023-04-17T19:24:25.810Z,13.02
2023-04-17T19:26:54.640Z,10.27
2023-04-17T19:29:23.872Z,11.95
2023-04-17T19:31:52.755Z,10.80
2023-04-17T19:34:24.649Z,10.38
2023-04-17T19:36:53.693Z,11.90
2023-04-17T19:39:22.684Z,12.93
2023-04-17T19:41:52.109Z,10.35
2023-04-17T19:44:20.926Z,11.32
2023-04-17T19:46:49.815Z,10.95
2023-04-17T19:49:18.736Z,10.50
2023-04-17T19:51:48.925Z,9.25
2023-04-17T19:54:18.010Z,9.45
2023-04-17T19:56:47.361Z,10.07
2023-04-17T19:59:16.633Z,12.05
2023-04-17T20:01:46.127Z,9.90
2023-04-17T20:04:16.724Z,8.95
2023-04-17T20:06:46.704Z,9.80
2023-04-17T20:09:17.333Z,12.27
2023-04-17T20:11:47.408Z,8.73
2023-04-17T20:14:17.744Z,8.63
2023-04-17T20:16:46.825Z,8.85
2023-04-17T20:19:18.786Z,9.18
2023-04-17T20:21:48.095Z,11.65
2023-04-17T20:24:18.535Z,9.02
2023-04-17T20:26:48.860Z,9.27
2023-04-17T20:29:17.885Z,10.75
2023-04-17T20:31:47.077Z,9.55
2023-04-17T20:34:15.927Z,11.65
2023-04-17T20:36:45.678Z,9.18
2023-04-17T20:39:15.533Z,10.52
2023-04-17T20:41:46.442Z,11.30
2023-04-17T20:44:16.778Z,8.52
2023-04-17T20:46:45.922Z,9.32
2023-04-17T20:49:15.128Z,12.10
2023-04-17T20:51:44.934Z,11.77
2023-04-17T20:54:13.841Z,11.48
2023-04-17T20:56:46.626Z,9.40
2023-04-17T20:59:15.986Z,10.85
2023-04-17T21:01:46.310Z,8.35
2023-04-17T21:04:16.089Z,9.45
2023-04-17T21:06:45.410Z,10.10
2023-04-17T21:09:14.946Z,9.55
2023-04-17T21:11:45.640Z,8.70
2023-04-17T21:14:15.543Z,9.35
2023-04-17T21:16:45.690Z,7.90
2023-04-17T21:19:15.581Z,8.18
2023-04-17T21:21:44.397Z,7.85
2023-04-17T21:24:13.759Z,8.07
2023-04-17T21:26:42.645Z,8.55
2023-04-17T21:29:14.782Z,8.35
2023-04-17T21:31:44.318Z,8.82
2023-04-17T21:34:13.306Z,9.27
2023-04-17T21:36:43.003Z,10.88
2023-04-17T21:39:12.207Z,10.90
2023-04-17T21:41:41.274Z,8.75
2023-04-17T21:44:11.014Z,8.98
2023-04-17T21:46:41.898Z,9.07
2023-04-17T21:49:10.419Z,10.15
2023-04-17T21:51:38.992Z,9.73
2023-04-17T21:54:09.266Z,8.65
2023-04-17T21:56:38.199Z,8.15
2023-04-17T21:59:06.884Z,11.00
2023-04-17T22:01:35.562Z,7.90
2023-04-17T22:04:07.672Z,10.02
2023-04-17T22:06:37.261Z,10.18
2023-04-17T22:09:06.479Z,10.65
2023-04-17T22:11:35.143Z,9.15
2023-04-17T22:14:04.331Z,9.30
2023-04-17T22:16:33.358Z,11.18
2023-04-17T22:19:02.899Z,11.38
2023-04-17T22:21:33.676Z,9.95
2023-04-17T22:24:03.147Z,11.18
2023-04-17T22:26:32.073Z,10.52
2023-04-17T22:29:00.872Z,10.35
2023-04-17T22:31:29.961Z,11.50
2023-04-17T22:34:00.351Z,11.05
2023-04-17T22:36:29.776Z,11.05
2023-04-17T22:39:00.279Z,9.80
2023-04-17T22:41:29.184Z,10.27
2023-04-17T22:43:58.370Z,12.43
2023-04-17T22:46:27.606Z,10.88
2023-04-17T22:48:58.443Z,11.82
2023-04-17T22:51:29.637Z,9.17
2023-04-17T22:54:01.572Z,10.63
2023-04-17T22:56:35.501Z,11.57
2023-04-17T22:59:04.134Z,10.52
2023-04-17T23:01:33.558Z,11.82
2023-04-17T23:04:02.501Z,10.93
2023-04-17T23:06:32.097Z,11.15
2023-04-17T23:09:02.234Z,14.10
2023-04-17T23:11:32.958Z,13.25
2023-04-17T23:14:03.754Z,12.70
2023-04-17T23:16:32.473Z,13.35
2023-04-17T23:19:01.180Z,12.02
2023-04-17T23:21:29.792Z,9.73
2023-04-17T23:23:58.520Z,14.20
2023-04-17T23:26:28.916Z,14.00
2023-04-17T23:28:57.432Z,13.38
2023-04-17T23:31:26.030Z,11.68
2023-04-17T23:33:54.555Z,13.60
2023-04-17T23:36:24.726Z,12.77
2023-04-17T23:38:53.940Z,15.68
2023-04-17T23:41:24.002Z,14.02
2023-04-17T23:43:56.304Z,13.95
2023-04-17T23:46:24.919Z,14.80
2023-04-17T23:48:53.886Z,12.88
2023-04-17T23:51:22.631Z,13.10
2023-04-17T23:53:51.131Z,12.07
2023-04-17T23:56:22.259Z,16.02
2023-04-17T23:58:51.031Z,12.80
